sensor_id;sensor_type;location;lat;lon;timestamp;pressure;altitude;pressure_sealevel;temperature;humidity
60345;BME280;46188;52.324;8.032;2023-03-01T00:01:22;101985.75;;;-1.73;96.39
60345;BME280;46188;52.324;8.032;2023-03-01T00:03:48;101986.03;;;-1.70;95.95
60345;BME280;46188;52.324;8.032;2023-03-01T00:06:14;101977.88;;;-1.75;95.27
60345;BME280;46188;52.324;8.032;2023-03-01T00:08:40;101978.91;;;-1.73;95.12
60345;BME280;46188;52.324;8.032;2023-03-01T00:11:23;101976.31;;;-1.73;95.76
60345;BME280;46188;52.324;8.032;2023-03-01T00:13:51;101981.09;;;-1.88;96.63
60345;BME280;46188;52.324;8.032;2023-03-01T00:16:22;101982.00;;;-1.87;97.35
60345;BME280;46188;52.324;8.032;2023-03-01T00:18:48;101989.78;;;-1.77;97.18
60345;BME280;46188;52.324;8.032;2023-03-01T00:21:14;101982.66;;;-1.69;96.33
60345;BME280;46188;52.324;8.032;2023-03-01T00:23:40;101986.16;;;-1.69;96.08
60345;BME280;46188;52.324;8.032;2023-03-01T00:26:08;101988.09;;;-1.76;95.83
60345;BME280;46188;52.324;8.032;2023-03-01T00:28:34;101984.34;;;-1.80;95.98
60345;BME280;46188;52.324;8.032;2023-03-01T00:31:10;101982.00;;;-1.87;96.50
60345;BME280;46188;52.324;8.032;2023-03-01T00:33:36;101987.28;;;-1.86;96.93
60345;BME280;46188;52.324;8.032;2023-03-01T00:36:02;101988.72;;;-1.89;96.85
60345;BME280;46188;52.324;8.032;2023-03-01T00:38:28;101987.16;;;-1.87;96.66
60345;BME280;46188;52.324;8.032;2023-03-01T00:40:54;101991.56;;;-1.86;96.49
60345;BME280;46188;52.324;8.032;2023-03-01T00:43:19;101996.09;;;-1.83;96.69
60345;BME280;46188;52.324;8.032;2023-03-01T00:45:48;102001.78;;;-1.88;96.41
60345;BME280;46188;52.324;8.032;2023-03-01T00:48:14;101994.16;;;-1.86;96.74
60345;BME280;46188;52.324;8.032;2023-03-01T00:50:39;101988.09;;;-1.87;96.19
60345;BME280;46188;52.324;8.032;2023-03-01T00:53:05;101984.56;;;-1.97;97.10
60345;BME280;46188;52.324;8.032;2023-03-01T00:55:30;101987.81;;;-2.00;96.48
60345;BME280;46188;52.324;8.032;2023-03-01T00:57:56;101989.59;;;-1.99;97.20
60345;BME280;46188;52.324;8.032;2023-03-01T01:00:21;101984.44;;;-1.99;96.66
60345;BME280;46188;52.324;8.032;2023-03-01T01:02:47;101991.91;;;-2.02;97.09
60345;BME280;46188;52.324;8.032;2023-03-01T01:05:13;101988.03;;;-2.07;96.79
60345;BME280;46188;52.324;8.032;2023-03-01T01:07:38;101984.94;;;-2.13;97.21
60345;BME280;46188;52.324;8.032;2023-03-01T01:10:05;101979.72;;;-2.24;97.70
60345;BME280;46188;52.324;8.032;2023-03-01T01:12:31;101982.09;;;-2.27;97.72
60345;BME280;46188;52.324;8.032;2023-03-01T01:14:57;101977.53;;;-2.29;97.97
60345;BME280;46188;52.324;8.032;2023-03-01T01:17:22;101977.25;;;-2.32;98.30
60345;BME280;46188;52.324;8.032;2023-03-01T01:19:48;101969.91;;;-2.38;98.27
60345;BME280;46188;52.324;8.032;2023-03-01T01:22:13;101965.78;;;-2.36;98.19
60345;BME280;46188;52.324;8.032;2023-03-01T01:24:39;101966.91;;;-2.43;98.58
60345;BME280;46188;52.324;8.032;2023-03-01T01:27:04;101962.38;;;-2.45;98.30
60345;BME280;46188;52.324;8.032;2023-03-01T01:29:29;101960.06;;;-2.42;98.55
60345;BME280;46188;52.324;8.032;2023-03-01T01:31:55;101962.38;;;-2.45;97.82
60345;BME280;46188;52.324;8.032;2023-03-01T01:34:21;101962.00;;;-2.50;98.25
60345;BME280;46188;52.324;8.032;2023-03-01T01:36:51;101958.72;;;-2.57;98.81
60345;BME280;46188;52.324;8.032;2023-03-01T01:39:18;101951.00;;;-2.57;98.94
60345;BME280;46188;52.324;8.032;2023-03-01T01:41:44;101949.72;;;-2.52;99.43
60345;BME280;46188;52.324;8.032;2023-03-01T01:44:21;101946.13;;;-2.44;98.98
60345;BME280;46188;52.324;8.032;2023-03-01T01:47:03;101941.97;;;-2.42;98.47
60345;BME280;46188;52.324;8.032;2023-03-01T01:49:36;101946.25;;;-2.43;98.64
60345;BME280;46188;52.324;8.032;2023-03-01T01:52:20;101945.09;;;-2.46;99.03
60345;BME280;46188;52.324;8.032;2023-03-01T01:54:51;101940.06;;;-2.45;98.79
60345;BME280;46188;52.324;8.032;2023-03-01T01:57:22;101948.44;;;-2.47;98.43
60345;BME280;46188;52.324;8.032;2023-03-01T01:59:55;101941.72;;;-2.45;98.27
60345;BME280;46188;52.324;8.032;2023-03-01T02:02:21;101943.00;;;-2.50;98.43
60345;BME280;46188;52.324;8.032;2023-03-01T02:04:48;101939.25;;;-2.54;98.59
60345;BME280;46188;52.324;8.032;2023-03-01T02:07:21;101942.97;;;-2.61;99.05
60345;BME280;46188;52.324;8.032;2023-03-01T02:09:50;101936.63;;;-2.64;98.94
60345;BME280;46188;52.324;8.032;2023-03-01T02:12:19;101938.47;;;-2.63;99.64
60345;BME280;46188;52.324;8.032;2023-03-01T02:14:45;101932.63;;;-2.71;99.44
60345;BME280;46188;52.324;8.032;2023-03-01T02:17:12;101934.16;;;-2.73;100.00
60345;BME280;46188;52.324;8.032;2023-03-01T02:22:34;101930.38;;;-2.76;100.00
60345;BME280;46188;52.324;8.032;2023-03-01T02:30:14;101917.69;;;-2.94;100.00
60345;BME280;46188;52.324;8.032;2023-03-01T02:32:41;101915.38;;;-2.91;100.00
60345;BME280;46188;52.324;8.032;2023-03-01T02:35:13;101919.75;;;-2.90;100.00
60345;BME280;46188;52.324;8.032;2023-03-01T02:37:40;101921.19;;;-2.83;100.00
60345;BME280;46188;52.324;8.032;2023-03-01T02:40:09;101930.25;;;-2.78;100.00
60345;BME280;46188;52.324;8.032;2023-03-01T02:42:47;101922.16;;;-2.72;100.00
60345;BME280;46188;52.324;8.032;2023-03-01T02:45:15;101927.44;;;-2.71;100.00
60345;BME280;46188;52.324;8.032;2023-03-01T02:47:40;101930.25;;;-2.78;100.00
60345;BME280;46188;52.324;8.032;2023-03-01T02:50:23;101917.03;;;-2.91;100.00
60345;BME280;46188;52.324;8.032;2023-03-01T02:53:11;101923.97;;;-3.01;100.00
60345;BME280;46188;52.324;8.032;2023-03-01T02:55:38;101918.97;;;-2.99;100.00
60345;BME280;46188;52.324;8.032;2023-03-01T02:58:04;101914.84;;;-2.97;100.00
60345;BME280;46188;52.324;8.032;2023-03-01T03:00:39;101909.06;;;-2.94;100.00
60345;BME280;46188;52.324;8.032;2023-03-01T03:03:13;101904.91;;;-2.92;100.00
60345;BME280;46188;52.324;8.032;2023-03-01T03:05:39;101907.50;;;-2.92;100.00
60345;BME280;46188;52.324;8.032;2023-03-01T03:08:04;101908.91;;;-2.96;100.00
60345;BME280;46188;52.324;8.032;2023-03-01T03:10:32;101909.81;;;-2.95;100.00
60345;BME280;46188;52.324;8.032;2023-03-01T03:13:04;101905.03;;;-3.01;100.00
60345;BME280;46188;52.324;8.032;2023-03-01T03:15:30;101908.84;;;-3.06;100.00
60345;BME280;46188;52.324;8.032;2023-03-01T03:17:57;101908.47;;;-3.11;100.00
60345;BME280;46188;52.324;8.032;2023-03-01T03:20:25;101913.38;;;-3.04;100.00
60345;BME280;46188;52.324;8.032;2023-03-01T03:22:52;101911.56;;;-3.05;100.00
60345;BME280;46188;52.324;8.032;2023-03-01T03:25:19;101911.97;;;-3.00;100.00
60345;BME280;46188;52.324;8.032;2023-03-01T03:27:46;101912.88;;;-3.00;100.00
60345;BME280;46188;52.324;8.032;2023-03-01T03:30:18;101910.66;;;-3.05;100.00
60345;BME280;46188;52.324;8.032;2023-03-01T03:32:46;101913.66;;;-3.01;100.00
60345;BME280;46188;52.324;8.032;2023-03-01T03:35:28;101908.69;;;-2.89;100.00
60345;BME280;46188;52.324;8.032;2023-03-01T03:37:56;101921.56;;;-2.89;100.00
60345;BME280;46188;52.324;8.032;2023-03-01T03:40:38;101907.22;;;-2.95;100.00
60345;BME280;46188;52.324;8.032;2023-03-01T03:43:06;101910.81;;;-3.04;100.00
60345;BME280;46188;52.324;8.032;2023-03-01T03:45:32;101909.63;;;-3.07;100.00
60345;BME280;46188;52.324;8.032;2023-03-01T03:47:59;101903.81;;;-3.05;100.00
60345;BME280;46188;52.324;8.032;2023-03-01T03:50:24;101902.81;;;-2.97;100.00
60345;BME280;46188;52.324;8.032;2023-03-01T03:52:49;101892.78;;;-2.93;100.00
60345;BME280;46188;52.324;8.032;2023-03-01T03:55:15;101890.84;;;-2.96;100.00
60345;BME280;46188;52.324;8.032;2023-03-01T03:57:46;101883.34;;;-2.93;100.00
60345;BME280;46188;52.324;8.032;2023-03-01T04:00:19;101872.78;;;-2.96;100.00
60345;BME280;46188;52.324;8.032;2023-03-01T04:02:46;101876.75;;;-3.00;100.00
60345;BME280;46188;52.324;8.032;2023-03-01T04:05:14;101873.66;;;-3.06;100.00
60345;BME280;46188;52.324;8.032;2023-03-01T04:07:41;101861.47;;;-3.17;100.00
60345;BME280;46188;52.324;8.032;2023-03-01T04:10:12;101862.38;;;-3.17;100.00
60345;BME280;46188;52.324;8.032;2023-03-01T04:12:39;101863.53;;;-3.13;100.00
60345;BME280;46188;52.324;8.032;2023-03-01T04:15:06;101864.34;;;-3.14;100.00
60345;BME280;46188;52.324;8.032;2023-03-01T04:17:47;101865.09;;;-3.15;100.00
60345;BME280;46188;52.324;8.032;2023-03-01T04:20:15;101871.66;;;-3.19;100.00
60345;BME280;46188;52.324;8.032;2023-03-01T04:22:51;101867.41;;;-3.18;100.00
60345;BME280;46188;52.324;8.032;2023-03-01T04:25:16;101867.66;;;-3.15;100.00
60345;BME280;46188;52.324;8.032;2023-03-01T04:27:42;101866.41;;;-3.10;100.00
60345;BME280;46188;52.324;8.032;2023-03-01T04:30:08;101858.38;;;-3.13;100.00
60345;BME280;46188;52.324;8.032;2023-03-01T04:32:34;101859.81;;;-3.06;100.00
60345;BME280;46188;52.324;8.032;2023-03-01T04:35:00;101858.31;;;-3.04;100.00
60345;BME280;46188;52.324;8.032;2023-03-01T04:37:26;101858.94;;;-3.07;100.00
60345;BME280;46188;52.324;8.032;2023-03-01T04:39:52;101852.84;;;-3.18;100.00
60345;BME280;46188;52.324;8.032;2023-03-01T04:42:18;101852.72;;;-3.19;100.00
60345;BME280;46188;52.324;8.032;2023-03-01T04:44:44;101855.56;;;-3.16;100.00
60345;BME280;46188;52.324;8.032;2023-03-01T04:47:10;101837.84;;;-3.22;100.00
60345;BME280;46188;52.324;8.032;2023-03-01T04:49:35;101845.72;;;-3.20;100.00
60345;BME280;46188;52.324;8.032;2023-03-01T04:52:01;101846.16;;;-3.16;100.00
60345;BME280;46188;52.324;8.032;2023-03-01T04:54:34;101841.88;;;-3.15;100.00
60345;BME280;46188;52.324;8.032;2023-03-01T04:57:00;101835.03;;;-3.15;100.00
60345;BME280;46188;52.324;8.032;2023-03-01T04:59:26;101839.03;;;-3.18;100.00
60345;BME280;46188;52.324;8.032;2023-03-01T05:01:53;101834.66;;;-3.19;100.00
60345;BME280;46188;52.324;8.032;2023-03-01T05:04:23;101842.88;;;-3.23;100.00
60345;BME280;46188;52.324;8.032;2023-03-01T05:06:48;101834.09;;;-3.25;100.00
60345;BME280;46188;52.324;8.032;2023-03-01T05:09:14;101845.69;;;-3.30;100.00
60345;BME280;46188;52.324;8.032;2023-03-01T05:11:39;101841.00;;;-3.35;100.00
60345;BME280;46188;52.324;8.032;2023-03-01T05:14:06;101843.59;;;-3.35;100.00
60345;BME280;46188;52.324;8.032;2023-03-01T05:16:32;101848.03;;;-3.23;100.00
60345;BME280;46188;52.324;8.032;2023-03-01T05:18:58;101847.81;;;-3.16;100.00
60345;BME280;46188;52.324;8.032;2023-03-01T05:21:25;101846.25;;;-3.24;100.00
60345;BME280;46188;52.324;8.032;2023-03-01T05:23:51;101847.25;;;-3.32;100.00
60345;BME280;46188;52.324;8.032;2023-03-01T05:26:20;101842.84;;;-3.34;100.00
60345;BME280;46188;52.324;8.032;2023-03-01T05:28:54;101850.06;;;-3.29;100.00
60345;BME280;46188;52.324;8.032;2023-03-01T05:31:23;101847.44;;;-3.40;100.00
60345;BME280;46188;52.324;8.032;2023-03-01T05:33:49;101852.19;;;-3.44;100.00
60345;BME280;46188;52.324;8.032;2023-03-01T05:36:14;101850.44;;;-3.35;100.00
60345;BME280;46188;52.324;8.032;2023-03-01T05:38:40;101848.88;;;-3.33;100.00
60345;BME280;46188;52.324;8.032;2023-03-01T05:41:13;101859.72;;;-3.37;100.00
60345;BME280;46188;52.324;8.032;2023-03-01T05:43:39;101849.56;;;-3.55;100.00
60345;BME280;46188;52.324;8.032;2023-03-01T05:46:06;101849.13;;;-3.59;100.00
60345;BME280;46188;52.324;8.032;2023-03-01T05:48:32;101862.31;;;-3.56;100.00
60345;BME280;46188;52.324;8.032;2023-03-01T05:50:59;101859.59;;;-3.58;100.00
60345;BME280;46188;52.324;8.032;2023-03-01T05:53:25;101866.84;;;-3.54;100.00
60345;BME280;46188;52.324;8.032;2023-03-01T05:55:51;101867.97;;;-3.60;100.00
60345;BME280;46188;52.324;8.032;2023-03-01T05:58:18;101875.69;;;-3.60;100.00
60345;BME280;46188;52.324;8.032;2023-03-01T06:00:47;101865.16;;;-3.53;100.00
60345;BME280;46188;52.324;8.032;2023-03-01T06:03:15;101858.88;;;-3.46;100.00
60345;BME280;46188;52.324;8.032;2023-03-01T06:05:41;101860.56;;;-3.47;100.00
60345;BME280;46188;52.324;8.032;2023-03-01T06:08:09;101857.97;;;-3.47;100.00
60345;BME280;46188;52.324;8.032;2023-03-01T06:10:35;101853.59;;;-3.48;100.00
60345;BME280;46188;52.324;8.032;2023-03-01T06:13:01;101849.34;;;-3.47;100.00
60345;BME280;46188;52.324;8.032;2023-03-01T06:15:27;101837.59;;;-3.54;100.00
60345;BME280;46188;52.324;8.032;2023-03-01T06:17:54;101840.16;;;-3.54;100.00
60345;BME280;46188;52.324;8.032;2023-03-01T06:20:23;101840.16;;;-3.54;100.00
60345;BME280;46188;52.324;8.032;2023-03-01T06:22:49;101847.75;;;-3.56;100.00
60345;BME280;46188;52.324;8.032;2023-03-01T06:25:21;101846.84;;;-3.56;100.00
60345;BME280;46188;52.324;8.032;2023-03-01T06:27:47;101840.16;;;-3.73;100.00
60345;BME280;46188;52.324;8.032;2023-03-01T06:30:15;101846.09;;;-3.74;100.00
60345;BME280;46188;52.324;8.032;2023-03-01T06:32:41;101851.47;;;-3.81;100.00
60345;BME280;46188;52.324;8.032;2023-03-01T06:35:11;101843.31;;;-3.86;100.00
60345;BME280;46188;52.324;8.032;2023-03-01T06:37:37;101843.16;;;-3.87;100.00
60345;BME280;46188;52.324;8.032;2023-03-01T06:40:04;101848.75;;;-3.83;100.00
60345;BME280;46188;52.324;8.032;2023-03-01T06:42:37;101844.16;;;-3.77;100.00
60345;BME280;46188;52.324;8.032;2023-03-01T06:45:04;101844.75;;;-3.79;100.00
60345;BME280;46188;52.324;8.032;2023-03-01T06:47:31;101843.50;;;-3.74;100.00
60345;BME280;46188;52.324;8.032;2023-03-01T06:49:58;101835.31;;;-3.70;100.00
60345;BME280;46188;52.324;8.032;2023-03-01T06:52:24;101840.38;;;-3.61;100.00
60345;BME280;46188;52.324;8.032;2023-03-01T06:54:49;101839.38;;;-3.53;100.00
60345;BME280;46188;52.324;8.032;2023-03-01T06:57:15;101844.25;;;-3.56;100.00
60345;BME280;46188;52.324;8.032;2023-03-01T06:59:40;101847.91;;;-3.54;100.00
60345;BME280;46188;52.324;8.032;2023-03-01T07:02:06;101842.25;;;-3.50;100.00
60345;BME280;46188;52.324;8.032;2023-03-01T07:04:31;101836.72;;;-3.44;100.00
60345;BME280;46188;52.324;8.032;2023-03-01T07:06:57;101845.91;;;-3.38;100.00
60345;BME280;46188;52.324;8.032;2023-03-01T07:09:23;101838.72;;;-3.31;100.00
60345;BME280;46188;52.324;8.032;2023-03-01T07:11:49;101850.34;;;-3.26;100.00
60345;BME280;46188;52.324;8.032;2023-03-01T07:14:15;101840.16;;;-3.25;100.00
60345;BME280;46188;52.324;8.032;2023-03-01T07:16:41;101830.50;;;-3.27;100.00
60345;BME280;46188;52.324;8.032;2023-03-01T07:19:07;101837.72;;;-3.23;100.00
60345;BME280;46188;52.324;8.032;2023-03-01T07:21:32;101841.47;;;-3.20;100.00
60345;BME280;46188;52.324;8.032;2023-03-01T07:23:57;101839.03;;;-3.18;100.00
60345;BME280;46188;52.324;8.032;2023-03-01T07:26:23;101839.28;;;-3.15;100.00
60345;BME280;46188;52.324;8.032;2023-03-01T07:28:48;101831.97;;;-3.10;100.00
60345;BME280;46188;52.324;8.032;2023-03-01T07:31:14;101831.59;;;-3.05;100.00
60345;BME280;46188;52.324;8.032;2023-03-01T07:33:39;101836.41;;;-2.99;100.00
60345;BME280;46188;52.324;8.032;2023-03-01T07:36:05;101834.47;;;-2.91;100.00
60345;BME280;46188;52.324;8.032;2023-03-01T07:38:31;101835.53;;;-2.79;100.00
60345;BME280;46188;52.324;8.032;2023-03-01T07:41:01;101840.22;;;-2.65;100.00
60345;BME280;46188;52.324;8.032;2023-03-01T07:43:28;101835.47;;;-2.50;100.00
60345;BME280;46188;52.324;8.032;2023-03-01T07:45:54;101828.34;;;-2.42;100.00
60345;BME280;46188;52.324;8.032;2023-03-01T07:48:20;101824.00;;;-2.33;100.00
60345;BME280;46188;52.324;8.032;2023-03-01T07:50:45;101822.28;;;-2.22;100.00
60345;BME280;46188;52.324;8.032;2023-03-01T07:53:11;101829.25;;;-2.11;100.00
60345;BME280;46188;52.324;8.032;2023-03-01T07:55:37;101827.94;;;-1.95;100.00
60345;BME280;46188;52.324;8.032;2023-03-01T07:58:02;101825.34;;;-1.75;100.00
60345;BME280;46188;52.324;8.032;2023-03-01T08:00:28;101827.75;;;-1.56;100.00
60345;BME280;46188;52.324;8.032;2023-03-01T08:02:53;101829.38;;;-1.36;100.00
60345;BME280;46188;52.324;8.032;2023-03-01T08:05:19;101821.41;;;-1.17;100.00
60345;BME280;46188;52.324;8.032;2023-03-01T08:07:44;101824.19;;;-1.03;100.00
60345;BME280;46188;52.324;8.032;2023-03-01T08:10:10;101837.44;;;-0.88;100.00
60345;BME280;46188;52.324;8.032;2023-03-01T08:12:36;101827.75;;;-0.69;100.00
60345;BME280;46188;52.324;8.032;2023-03-01T08:15:01;101831.22;;;-0.46;100.00
60345;BME280;46188;52.324;8.032;2023-03-01T08:17:27;101826.88;;;-0.24;100.00
60345;BME280;46188;52.324;8.032;2023-03-01T08:19:52;101827.16;;;0.03;100.00
60345;BME280;46188;52.324;8.032;2023-03-01T08:22:18;101832.06;;;0.34;100.00
60345;BME280;46188;52.324;8.032;2023-03-01T08:24:43;101819.28;;;0.72;100.00
60345;BME280;46188;52.324;8.032;2023-03-01T08:27:09;101821.13;;;1.10;98.48
60345;BME280;46188;52.324;8.032;2023-03-01T08:29:35;101815.72;;;1.44;95.55
60345;BME280;46188;52.324;8.032;2023-03-01T08:32:00;101806.63;;;1.76;93.58
60345;BME280;46188;52.324;8.032;2023-03-01T08:34:26;101819.31;;;2.10;91.14
60345;BME280;46188;52.324;8.032;2023-03-01T08:36:51;101812.94;;;2.32;89.46
60345;BME280;46188;52.324;8.032;2023-03-01T08:39:19;101811.31;;;2.61;87.46
60345;BME280;46188;52.324;8.032;2023-03-01T08:41:46;101805.41;;;3.18;85.84
60345;BME280;46188;52.324;8.032;2023-03-01T08:44:13;101799.72;;;3.97;81.97
60345;BME280;46188;52.324;8.032;2023-03-01T08:46:40;101801.97;;;4.67;77.33
60345;BME280;46188;52.324;8.032;2023-03-01T08:49:07;101797.84;;;5.34;74.38
60345;BME280;46188;52.324;8.032;2023-03-01T08:51:33;101794.53;;;5.88;72.44
60345;BME280;46188;52.324;8.032;2023-03-01T08:54:06;101796.22;;;6.38;70.30
60345;BME280;46188;52.324;8.032;2023-03-01T08:56:32;101798.59;;;6.70;68.60
60345;BME280;46188;52.324;8.032;2023-03-01T08:58:59;101784.66;;;6.89;66.87
60345;BME280;46188;52.324;8.032;2023-03-01T09:01:24;101789.63;;;7.20;65.92
60345;BME280;46188;52.324;8.032;2023-03-01T09:03:50;101787.63;;;7.53;64.37
60345;BME280;46188;52.324;8.032;2023-03-01T09:06:16;101789.06;;;7.66;63.70
60345;BME280;46188;52.324;8.032;2023-03-01T09:08:44;101784.38;;;8.00;62.81
60345;BME280;46188;52.324;8.032;2023-03-01T09:11:11;101780.41;;;8.09;61.59
60345;BME280;46188;52.324;8.032;2023-03-01T09:13:37;101784.22;;;8.39;60.37
60345;BME280;46188;52.324;8.032;2023-03-01T09:16:05;101779.34;;;8.69;59.38
60345;BME280;46188;52.324;8.032;2023-03-01T09:18:31;101779.59;;;8.98;57.77
60345;BME280;46188;52.324;8.032;2023-03-01T09:21:03;101775.75;;;8.90;56.60
60345;BME280;46188;52.324;8.032;2023-03-01T09:23:33;101777.94;;;8.77;55.74
60345;BME280;46188;52.324;8.032;2023-03-01T09:25:59;101771.63;;;8.96;54.71
60345;BME280;46188;52.324;8.032;2023-03-01T09:28:24;101766.56;;;9.01;54.29
60345;BME280;46188;52.324;8.032;2023-03-01T09:30:50;101768.06;;;9.18;53.52
60345;BME280;46188;52.324;8.032;2023-03-01T09:33:15;101760.53;;;9.28;53.01
60345;BME280;46188;52.324;8.032;2023-03-01T09:35:41;101763.28;;;9.31;52.06
60345;BME280;46188;52.324;8.032;2023-03-01T09:38:12;101762.47;;;9.33;52.03
60345;BME280;46188;52.324;8.032;2023-03-01T09:40:42;101763.78;;;9.45;50.92
60345;BME280;46188;52.324;8.032;2023-03-01T09:46:00;101760.88;;;9.37;49.44
60345;BME280;46188;52.324;8.032;2023-03-01T09:48:36;101755.06;;;9.71;48.75
60345;BME280;46188;52.324;8.032;2023-03-01T09:51:05;101757.72;;;9.97;48.99
60345;BME280;46188;52.324;8.032;2023-03-01T09:53:34;101752.13;;;10.13;48.48
60345;BME280;46188;52.324;8.032;2023-03-01T09:56:19;101752.53;;;10.26;48.42
60345;BME280;46188;52.324;8.032;2023-03-01T10:04:47;101743.16;;;10.61;47.31
60345;BME280;46188;52.324;8.032;2023-03-01T10:09:54;101755.69;;;10.15;47.07
60345;BME280;46188;52.324;8.032;2023-03-01T10:12:24;101761.28;;;10.25;46.31
60345;BME280;46188;52.324;8.032;2023-03-01T10:22:50;101749.31;;;10.62;45.80
60345;BME280;46188;52.324;8.032;2023-03-01T10:25:56;101739.19;;;10.76;44.36
60345;BME280;46188;52.324;8.032;2023-03-01T10:31:13;101734.31;;;10.61;45.04
60345;BME280;46188;52.324;8.032;2023-03-01T10:33:40;101740.97;;;10.77;45.70
60345;BME280;46188;52.324;8.032;2023-03-01T10:36:07;101737.94;;;10.63;45.16
60345;BME280;46188;52.324;8.032;2023-03-01T10:41:13;101732.75;;;10.39;45.16
60345;BME280;46188;52.324;8.032;2023-03-01T10:44:32;101726.94;;;9.96;45.25
60345;BME280;46188;52.324;8.032;2023-03-01T10:46:34;101733.03;;;9.93;44.61
60345;BME280;46188;52.324;8.032;2023-03-01T10:49:20;101738.00;;;9.86;45.26
60345;BME280;46188;52.324;8.032;2023-03-01T10:51:49;101737.84;;;9.55;46.25
60345;BME280;46188;52.324;8.032;2023-03-01T10:54:24;101728.31;;;9.35;46.52
60345;BME280;46188;52.324;8.032;2023-03-01T10:56:59;101732.75;;;9.12;47.23
60345;BME280;46188;52.324;8.032;2023-03-01T10:59:35;101740.13;;;8.98;47.59
60345;BME280;46188;52.324;8.032;2023-03-01T11:02:08;101741.44;;;8.86;47.73
60345;BME280;46188;52.324;8.032;2023-03-01T11:04:42;101737.94;;;9.10;48.04
60345;BME280;46188;52.324;8.032;2023-03-01T11:07:21;101732.38;;;9.01;47.19
60345;BME280;46188;52.324;8.032;2023-03-01T11:09:46;101742.38;;;9.11;47.01
60345;BME280;46188;52.324;8.032;2023-03-01T11:12:14;101739.13;;;9.18;46.72
60345;BME280;46188;52.324;8.032;2023-03-01T11:14:48;101740.59;;;9.34;46.33
60345;BME280;46188;52.324;8.032;2023-03-01T11:17:23;101742.09;;;9.03;46.16
60345;BME280;46188;52.324;8.032;2023-03-01T11:22:49;101738.66;;;9.78;46.04
60345;BME280;46188;52.324;8.032;2023-03-01T11:25:17;101732.28;;;9.72;45.54
60345;BME280;46188;52.324;8.032;2023-03-01T11:27:45;101733.63;;;9.86;45.49
60345;BME280;46188;52.324;8.032;2023-03-01T11:30:29;101735.06;;;10.02;44.91
60345;BME280;46188;52.324;8.032;2023-03-01T11:35:30;101734.78;;;9.94;44.96
60345;BME280;46188;52.324;8.032;2023-03-01T11:38:12;101725.28;;;10.25;45.15
60345;BME280;46188;52.324;8.032;2023-03-01T11:40:44;101722.53;;;10.22;43.49
60345;BME280;46188;52.324;8.032;2023-03-01T11:43:36;101731.09;;;10.15;44.62
60345;BME280;46188;52.324;8.032;2023-03-01T11:58:08;101692.88;;;10.28;43.51
60345;BME280;46188;52.324;8.032;2023-03-01T12:01:00;101685.72;;;9.96;43.77
60345;BME280;46188;52.324;8.032;2023-03-01T12:07:01;101677.75;;;10.22;43.09
60345;BME280;46188;52.324;8.032;2023-03-01T12:15:47;101664.72;;;10.27;42.97
60345;BME280;46188;52.324;8.032;2023-03-01T12:18:22;101669.03;;;10.52;43.17
60345;BME280;46188;52.324;8.032;2023-03-01T12:26:34;101660.22;;;10.24;43.07
60345;BME280;46188;52.324;8.032;2023-03-01T12:31:58;101658.19;;;10.41;42.75
60345;BME280;46188;52.324;8.032;2023-03-01T12:40:16;101633.69;;;10.45;42.92
60345;BME280;46188;52.324;8.032;2023-03-01T12:49:08;101630.41;;;9.96;42.73
60345;BME280;46188;52.324;8.032;2023-03-01T12:51:37;101615.63;;;10.02;42.68
60345;BME280;46188;52.324;8.032;2023-03-01T12:54:28;101620.50;;;9.62;42.51
60345;BME280;46188;52.324;8.032;2023-03-01T12:56:57;101622.84;;;9.54;42.47
60345;BME280;46188;52.324;8.032;2023-03-01T12:59:36;101620.75;;;9.44;43.00
60345;BME280;46188;52.324;8.032;2023-03-01T13:02:41;101612.91;;;9.46;43.24
60345;BME280;46188;52.324;8.032;2023-03-01T13:06:02;101614.31;;;9.10;43.50
60345;BME280;46188;52.324;8.032;2023-03-01T13:11:17;101605.38;;;9.56;43.36
60345;BME280;46188;52.324;8.032;2023-03-01T13:13:43;101599.03;;;9.77;42.83
60345;BME280;46188;52.324;8.032;2023-03-01T13:19:18;101588.50;;;9.24;43.08
60345;BME280;46188;52.324;8.032;2023-03-01T13:21:45;101595.91;;;9.10;43.30
60345;BME280;46188;52.324;8.032;2023-03-01T13:32:26;101580.44;;;9.19;43.50
60345;BME280;46188;52.324;8.032;2023-03-01T13:37:40;101580.28;;;9.15;43.12
60345;BME280;46188;52.324;8.032;2023-03-01T13:42:44;101580.03;;;9.33;43.15
60345;BME280;46188;52.324;8.032;2023-03-01T13:45:41;101566.41;;;9.19;43.55
60345;BME280;46188;52.324;8.032;2023-03-01T13:48:21;101564.38;;;9.12;44.13
60345;BME280;46188;52.324;8.032;2023-03-01T13:50:52;101559.44;;;8.95;43.75
60345;BME280;46188;52.324;8.032;2023-03-01T13:53:23;101561.47;;;9.02;44.06
60345;BME280;46188;52.324;8.032;2023-03-01T13:56:02;101551.19;;;9.10;43.67
60345;BME280;46188;52.324;8.032;2023-03-01T13:58:29;101553.50;;;9.27;42.81
60345;BME280;46188;52.324;8.032;2023-03-01T14:01:06;101553.69;;;9.05;43.11
60345;BME280;46188;52.324;8.032;2023-03-01T14:03:41;101548.16;;;9.23;43.37
60345;BME280;46188;52.324;8.032;2023-03-01T14:06:15;101554.09;;;8.92;43.36
60345;BME280;46188;52.324;8.032;2023-03-01T14:08:46;101543.13;;;8.80;42.87
60345;BME280;46188;52.324;8.032;2023-03-01T14:11:34;101543.81;;;9.00;43.24
60345;BME280;46188;52.324;8.032;2023-03-01T14:19:24;101537.84;;;9.57;43.37
60345;BME280;46188;52.324;8.032;2023-03-01T14:24:39;101529.25;;;9.10;44.33
60345;BME280;46188;52.324;8.032;2023-03-01T14:27:13;101525.94;;;9.15;44.24
60345;BME280;46188;52.324;8.032;2023-03-01T14:29:39;101532.75;;;9.10;44.58
60345;BME280;46188;52.324;8.032;2023-03-01T14:34:49;101529.00;;;9.02;44.46
60345;BME280;46188;52.324;8.032;2023-03-01T14:39:53;101532.03;;;8.89;44.33
60345;BME280;46188;52.324;8.032;2023-03-01T14:42:22;101515.19;;;8.83;44.34
60345;BME280;46188;52.324;8.032;2023-03-01T14:44:50;101518.81;;;8.85;44.27
60345;BME280;46188;52.324;8.032;2023-03-01T14:47:26;101506.16;;;9.01;43.94
60345;BME280;46188;52.324;8.032;2023-03-01T14:49:57;101498.72;;;8.88;43.97
60345;BME280;46188;52.324;8.032;2023-03-01T14:52:30;101496.66;;;8.79;44.26